createdAt,value
2022-09-28T00:01:24.559Z,40.35
2022-09-28T00:03:55.063Z,35.30
2022-09-28T00:06:24.965Z,36.92
2022-09-28T00:08:53.910Z,37.30
2022-09-28T00:11:23.699Z,34.42
2022-09-28T00:13:56.618Z,33.33
2022-09-28T00:16:29.037Z,33.45
2022-09-28T00:19:00.461Z,32.83
2022-09-28T00:21:31.655Z,32.80
2022-09-28T00:24:17.417Z,32.78
2022-09-28T00:26:52.721Z,30.95
2022-09-28T00:29:29.206Z,33.15
2022-09-28T00:32:02.413Z,31.40
2022-09-28T00:34:33.322Z,34.45
2022-09-28T00:37:03.117Z,35.28
2022-09-28T00:39:31.818Z,34.05
2022-09-28T00:42:00.499Z,34.67
2022-09-28T00:44:42.140Z,32.47
2022-09-28T00:47:34.298Z,33.95
2022-09-28T00:50:14.891Z,34.97
2022-09-28T00:53:11.812Z,34.30
2022-09-28T00:55:48.093Z,39.35
2022-09-28T00:58:27.483Z,41.47
2022-09-28T01:00:59.706Z,42.28
2022-09-28T01:03:29.274Z,39.10
2022-09-28T01:06:02.262Z,39.83
2022-09-28T01:08:33.176Z,35.85
2022-09-28T01:11:02.143Z,35.97
2022-09-28T01:13:35.072Z,36.65
2022-09-28T01:16:24.898Z,39.63
2022-09-28T01:19:31.727Z,38.05
2022-09-28T01:22:24.168Z,35.30
2022-09-28T01:25:31.767Z,38.70
2022-09-28T01:28:16.343Z,39.85
2022-09-28T01:30:56.506Z,42.20
2022-09-28T01:33:31.318Z,39.80
2022-09-28T01:36:08.054Z,39.20
2022-09-28T01:38:52.741Z,36.25
2022-09-28T01:41:24.099Z,37.80
2022-09-28T01:43:57.606Z,36.10
2022-09-28T01:46:36.672Z,39.72
2022-09-28T01:49:12.138Z,38.40
2022-09-28T01:52:15.623Z,38.17
2022-09-28T01:57:31.920Z,36.05
2022-09-28T02:00:14.775Z,31.63
2022-09-28T02:03:04.604Z,39.60
2022-09-28T02:06:08.660Z,29.38
2022-09-28T02:09:09.775Z,32.63
2022-09-28T02:11:50.624Z,31.02
2022-09-28T02:14:20.943Z,31.00
2022-09-28T02:16:56.618Z,31.02
2022-09-28T02:19:32.446Z,28.02
2022-09-28T02:22:23.466Z,33.22
2022-09-28T02:24:58.583Z,29.95
2022-09-28T02:27:50.235Z,27.98
2022-09-28T02:30:18.920Z,30.80
2022-09-28T02:32:50.636Z,29.40
2022-09-28T02:35:19.880Z,28.80
2022-09-28T02:37:49.096Z,29.83
2022-09-28T02:40:21.997Z,25.77
2022-09-28T02:46:15.556Z,24.98
2022-09-28T02:49:30.503Z,29.42
2022-09-28T02:51:58.763Z,24.92
2022-09-28T02:55:16.775Z,25.58
2022-09-28T02:57:53.911Z,23.70
2022-09-28T03:00:24.184Z,23.83
2022-09-28T03:03:04.043Z,28.15
2022-09-28T03:05:43.574Z,26.35
2022-09-28T03:08:19.720Z,26.70
2022-09-28T03:10:58.050Z,27.17
2022-09-28T03:13:28.053Z,26.10
2022-09-28T03:16:10.955Z,29.33
2022-09-28T03:18:39.929Z,31.38
2022-09-28T03:21:11.007Z,35.40
2022-09-28T03:23:39.758Z,35.83
2022-09-28T03:26:16.870Z,32.53
2022-09-28T03:28:45.189Z,31.30
2022-09-28T03:31:22.592Z,36.78
2022-09-28T03:33:52.278Z,34.45
2022-09-28T03:36:20.604Z,32.63
2022-09-28T03:38:51.541Z,39.08
2022-09-28T03:41:19.734Z,30.45
2022-09-28T03:43:47.993Z,34.22
2022-09-28T03:46:16.555Z,34.00
2022-09-28T03:48:49.180Z,32.38
2022-09-28T03:51:17.527Z,30.60
2022-09-28T03:53:45.804Z,34.35
2022-09-28T03:56:15.559Z,31.05
2022-09-28T03:58:43.719Z,31.38
2022-09-28T04:01:17.527Z,30.75
2022-09-28T04:03:57.055Z,32.33
2022-09-28T04:06:26.435Z,34.83
2022-09-28T04:08:54.956Z,30.85
2022-09-28T04:11:24.146Z,30.75
2022-09-28T04:13:52.440Z,33.00
2022-09-28T04:16:39.438Z,29.55
2022-09-28T04:19:11.990Z,35.43
2022-09-28T04:21:40.878Z,29.90
2022-09-28T04:24:11.764Z,28.55
2022-09-28T04:26:40.193Z,29.48
2022-09-28T04:29:16.725Z,32.85
2022-09-28T04:31:53.525Z,28.13
2022-09-28T04:34:24.964Z,30.65
2022-09-28T04:36:53.270Z,34.63
2022-09-28T04:39:21.630Z,35.13
2022-09-28T04:41:56.704Z,31.13
2022-09-28T04:44:24.906Z,31.58
2022-09-28T04:47:03.006Z,33.70
2022-09-28T04:49:35.480Z,36.47
2022-09-28T04:52:08.356Z,34.35
2022-09-28T04:54:36.751Z,30.95
2022-09-28T04:57:06.160Z,33.28
2022-09-28T04:59:34.368Z,28.90
2022-09-28T05:02:02.676Z,28.50
2022-09-28T05:04:42.831Z,29.52
2022-09-28T05:07:33.494Z,30.75
2022-09-28T05:10:04.273Z,31.10
2022-09-28T05:12:33.958Z,28.10
2022-09-28T05:15:02.157Z,29.70
2022-09-28T05:17:30.953Z,28.35
2022-09-28T05:20:10.677Z,29.63
2022-09-28T05:22:39.298Z,29.30
2022-09-28T05:25:10.791Z,34.42
2022-09-28T05:28:03.931Z,33.35
2022-09-28T05:30:41.773Z,35.42
2022-09-28T05:33:28.700Z,38.65
2022-09-28T05:36:08.574Z,36.72
2022-09-28T05:38:36.813Z,37.58
2022-09-28T05:41:06.802Z,36.80
2022-09-28T05:43:36.369Z,38.70
2022-09-28T05:46:06.874Z,40.78
2022-09-28T05:48:38.314Z,43.17
2022-09-28T05:51:07.863Z,47.17
2022-09-28T05:53:36.498Z,44.67
2022-09-28T05:56:04.890Z,42.63
2022-09-28T05:58:34.780Z,45.40
2022-09-28T06:01:03.150Z,49.67
2022-09-28T06:03:31.980Z,47.25
2022-09-28T06:06:03.963Z,43.67
2022-09-28T06:08:33.348Z,52.43
2022-09-28T06:11:14.858Z,45.85
2022-09-28T06:13:43.043Z,41.33
2022-09-28T06:16:17.298Z,44.40
2022-09-28T06:18:48.448Z,40.88
2022-09-28T06:21:47.149Z,42.47
2022-09-28T06:24:15.788Z,42.08
2022-09-28T06:26:44.094Z,40.17
2022-09-28T06:29:19.900Z,46.88
2022-09-28T06:31:48.650Z,37.90
2022-09-28T06:34:17.401Z,42.75
2022-09-28T06:37:04.749Z,38.58
2022-09-28T06:39:33.651Z,41.33
2022-09-28T06:42:03.301Z,40.05
2022-09-28T06:44:52.132Z,45.28
2022-09-28T06:47:42.872Z,41.83
2022-09-28T06:50:29.951Z,43.25
2022-09-28T06:53:14.816Z,47.08
2022-09-28T06:55:52.326Z,43.53
2022-09-28T06:58:21.714Z,41.13
2022-09-28T07:00:53.297Z,39.40
2022-09-28T07:03:23.243Z,41.05
2022-09-28T07:06:24.002Z,43.95
2022-09-28T07:09:29.717Z,42.35
2022-09-28T07:12:16.890Z,43.35
2022-09-28T07:15:14.768Z,39.67
2022-09-28T07:17:55.051Z,42.72
2022-09-28T07:20:26.717Z,42.35
2022-09-28T07:22:57.135Z,44.08
2022-09-28T07:25:32.357Z,42.05
2022-09-28T07:28:09.926Z,40.85
2022-09-28T07:30:58.066Z,43.13
2022-09-28T07:34:02.507Z,37.75
2022-09-28T07:36:36.473Z,39.80
2022-09-28T07:39:05.165Z,40.38
2022-09-28T07:41:35.079Z,35.22
2022-09-28T07:44:06.878Z,33.95
2022-09-28T07:46:37.773Z,29.27
2022-09-28T07:49:12.786Z,25.13
2022-09-28T07:51:59.482Z,23.75
2022-09-28T07:54:31.319Z,28.98
2022-09-28T07:56:59.554Z,30.92
2022-09-28T07:59:38.861Z,26.38
2022-09-28T08:02:27.034Z,31.17
2022-09-28T08:04:56.399Z,31.90
2022-09-28T08:07:25.688Z,28.55
2022-09-28T08:10:06.433Z,26.92
2022-09-28T08:12:59.164Z,32.83
2022-09-28T08:15:43.673Z,28.15
2022-09-28T08:18:24.044Z,25.40
2022-09-28T08:21:12.313Z,24.27
2022-09-28T08:23:40.633Z,22.75
2022-09-28T08:26:13.312Z,24.20
2022-09-28T08:28:45.313Z,26.90
2022-09-28T08:31:39.588Z,22.05
2022-09-28T08:34:42.457Z,23.58
2022-09-28T08:37:37.002Z,19.73
2022-09-28T08:40:38.079Z,23.90
2022-09-28T08:43:44.289Z,20.75
2022-09-28T08:46:27.220Z,17.23
2022-09-28T08:49:36.272Z,14.95
2022-09-28T08:52:30.242Z,13.80
2022-09-28T08:57:55.867Z,15.98
2022-09-28T09:00:39.798Z,15.65
2022-09-28T09:03:23.800Z,12.10
2022-09-28T09:06:46.539Z,17.77
2022-09-28T09:10:02.587Z,10.82
2022-09-28T09:12:43.770Z,11.68
2022-09-28T09:15:14.745Z,12.73
2022-09-28T09:17:42.917Z,13.85
2022-09-28T09:20:57.271Z,12.80
2022-09-28T09:23:55.451Z,7.97
2022-09-28T09:26:39.952Z,6.15
2022-09-28T09:29:36.484Z,4.30
2022-09-28T09:32:33.523Z,4.95
2022-09-28T09:35:31.578Z,2.85
2022-09-28T09:38:29.710Z,1.17
2022-09-28T09:41:16.315Z,4.10
2022-09-28T09:44:34.986Z,3.10
2022-09-28T09:47:32.112Z,1.37
2022-09-28T09:50:29.834Z,4.85
2022-09-28T09:53:25.091Z,0.98
2022-09-28T09:56:06.379Z,3.97
2022-09-28T09:58:47.825Z,8.02
2022-09-28T10:01:40.297Z,2.40
2022-09-28T10:04:40.808Z,3.42
2022-09-28T10:07:33.374Z,4.20
2022-09-28T10:10:03.126Z,2.53
2022-09-28T10:12:51.238Z,4.60
2022-09-28T10:18:14.315Z,4.00
2022-09-28T10:21:00.997Z,4.03
2022-09-28T10:23:37.946Z,2.08
2022-09-28T10:26:33.708Z,3.50
2022-09-28T10:29:05.713Z,1.63
2022-09-28T10:31:42.622Z,4.22
2022-09-28T10:34:29.664Z,5.18
2022-09-28T10:37:06.669Z,2.97
2022-09-28T10:39:58.329Z,2.22
2022-09-28T10:42:33.875Z,3.45
2022-09-28T10:45:22.240Z,1.48
2022-09-28T10:47:51.541Z,2.03
2022-09-28T10:50:28.194Z,5.53
2022-09-28T10:53:12.929Z,3.03
2022-09-28T10:56:23.301Z,1.55
2022-09-28T10:59:28.640Z,2.95
2022-09-28T11:02:26.185Z,1.30
2022-09-28T11:05:03.727Z,2.10
2022-09-28T11:07:46.445Z,2.55
2022-09-28T11:10:28.509Z,2.78
2022-09-28T11:13:01.215Z,3.00
2022-09-28T11:15:32.554Z,2.58
2022-09-28T11:20:52.414Z,2.70
2022-09-28T11:23:30.411Z,4.18
2022-09-28T11:26:09.465Z,6.70
2022-09-28T11:28:42.123Z,3.83
2022-09-28T11:31:30.687Z,2.55
2022-09-28T11:34:41.777Z,5.15
2022-09-28T11:37:46.498Z,2.80
2022-09-28T11:40:37.989Z,3.08
2022-09-28T11:43:38.310Z,3.80
2022-09-28T11:46:40.433Z,5.47
2022-09-28T11:49:37.095Z,3.75
2022-09-28T11:52:18.755Z,2.90
2022-09-28T11:54:59.267Z,3.72
2022-09-28T11:57:36.766Z,5.93
2022-09-28T12:00:13.140Z,2.95
2022-09-28T12:03:15.216Z,5.13
2022-09-28T12:05:57.387Z,4.68
2022-09-28T12:08:35.117Z,5.28
2022-09-28T12:11:33.368Z,5.25
2022-09-28T12:14:29.049Z,4.78
2022-09-28T12:19:51.845Z,3.00
2022-09-28T12:22:51.583Z,4.53
2022-09-28T12:25:23.209Z,3.35
2022-09-28T12:28:06.611Z,5.65
2022-09-28T12:30:40.642Z,4.05
2022-09-28T12:33:15.830Z,6.32
2022-09-28T12:35:44.219Z,4.00
2022-09-28T12:38:38.835Z,5.80
2022-09-28T12:41:22.659Z,4.63
2022-09-28T12:44:24.468Z,4.95
2022-09-28T12:47:14.783Z,3.60
2022-09-28T12:50:37.034Z,2.30
2022-09-28T12:53:09.356Z,4.45
2022-09-28T12:55:57.538Z,4.90
2022-09-28T12:58:44.794Z,4.70
2022-09-28T13:01:50.880Z,8.50
2022-09-28T13:04:44.205Z,5.18
2022-09-28T13:07:33.150Z,7.75
2022-09-28T13:10:16.763Z,9.38
2022-09-28T13:12:53.023Z,7.22
2022-09-28T13:15:36.234Z,5.25
2022-09-28T13:18:27.546Z,3.75
2022-09-28T13:21:11.625Z,9.63
2022-09-28T13:23:42.669Z,5.78
2022-09-28T13:26:32.911Z,11.30
2022-09-28T13:29:14.654Z,6.65
2022-09-28T13:31:50.615Z,3.63
2022-09-28T13:34:28.386Z,4.90
2022-09-28T13:37:16.847Z,4.07
2022-09-28T13:39:44.964Z,6.22
2022-09-28T13:42:30.971Z,6.07
2022-09-28T13:45:17.331Z,5.90
2022-09-28T13:48:36.347Z,8.20
2022-09-28T13:51:19.171Z,5.70
2022-09-28T13:54:17.261Z,10.77
2022-09-28T13:57:25.327Z,7.70
2022-09-28T14:00:10.463Z,4.93
2022-09-28T14:02:48.008Z,7.57
2022-09-28T14:05:41.727Z,8.02
2022-09-28T14:08:11.354Z,9.15
2022-09-28T14:10:52.497Z,11.60
2022-09-28T14:13:45.428Z,7.07
2022-09-28T14:16:23.653Z,7.97
2022-09-28T14:19:08.927Z,11.65
2022-09-28T14:21:45.828Z,3.40
2022-09-28T14:24:51.432Z,7.00
2022-09-28T14:27:32.494Z,6.35
2022-09-28T14:30:14.964Z,8.23
2022-09-28T14:32:53.419Z,7.07
2022-09-28T14:35:41.057Z,6.97
2022-09-28T14:38:44.279Z,6.10
2022-09-28T14:41:26.461Z,5.13
2022-09-28T14:44:03.624Z,10.40
2022-09-28T14:46:34.992Z,8.60
2022-09-28T14:49:26.067Z,5.15
2022-09-28T14:51:54.503Z,10.50
2022-09-28T14:54:26.595Z,3.80
2022-09-28T14:56:57.564Z,5.93
2022-09-28T14:59:36.073Z,5.93
2022-09-28T15:02:22.483Z,6.30
2022-09-28T15:05:00.045Z,6.15
2022-09-28T15:07:47.589Z,2.42
2022-09-28T15:10:31.380Z,6.38
2022-09-28T15:13:05.408Z,2.83
2022-09-28T15:15:38.889Z,8.10
2022-09-28T15:18:18.917Z,4.20
2022-09-28T15:20:49.222Z,9.00
2022-09-28T15:23:36.884Z,2.47
2022-09-28T15:26:08.585Z,2.53
2022-09-28T15:28:43.512Z,4.38
2022-09-28T15:31:21.880Z,6.70
2022-09-28T15:34:08.948Z,7.38
2022-09-28T15:36:46.999Z,6.75
2022-09-28T15:39:32.372Z,3.92
2022-09-28T15:42:01.216Z,6.38
2022-09-28T15:44:35.201Z,4.93
2022-09-28T15:47:10.693Z,4.32
2022-09-28T15:50:09.204Z,6.28
2022-09-28T15:52:46.970Z,5.65
2022-09-28T15:55:42.381Z,2.83
2022-09-28T15:58:15.108Z,3.78
2022-09-28T16:00:45.189Z,6.10
2022-09-28T16:03:21.764Z,7.68
2022-09-28T16:05:57.316Z,3.88
2022-09-28T16:08:37.463Z,7.90
2022-09-28T16:11:18.726Z,4.63
2022-09-28T16:14:01.831Z,6.85
2022-09-28T16:16:35.189Z,4.57
2022-09-28T16:19:05.162Z,5.10
2022-09-28T16:21:46.949Z,6.05
2022-09-28T16:24:24.523Z,7.47
2022-09-28T16:27:05.805Z,2.70
2022-09-28T16:29:40.025Z,6.07
2022-09-28T16:32:35.066Z,4.03
2022-09-28T16:35:23.421Z,4.40
2022-09-28T16:38:06.362Z,5.78
2022-09-28T16:40:35.236Z,5.03
2022-09-28T16:43:07.889Z,3.55
2022-09-28T16:45:37.616Z,4.10
2022-09-28T16:48:05.969Z,3.28
2022-09-28T16:50:34.148Z,5.43
2022-09-28T16:53:33.272Z,6.38
2022-09-28T16:56:05.555Z,3.85
2022-09-28T16:58:34.736Z,6.53
2022-09-28T17:01:03.647Z,7.95
2022-09-28T17:03:32.069Z,4.93
2022-09-28T17:06:02.433Z,7.38
2022-09-28T17:08:30.677Z,15.02
2022-09-28T17:11:22.735Z,9.90
2022-09-28T17:13:50.650Z,11.95
2022-09-28T17:16:36.754Z,11.32
2022-09-28T17:19:23.235Z,8.52
2022-09-28T17:21:52.897Z,11.63
2022-09-28T17:24:21.644Z,4.53
2022-09-28T17:26:51.774Z,3.28
2022-09-28T17:29:20.089Z,5.22
2022-09-28T17:31:52.159Z,3.60
2022-09-28T17:34:20.888Z,7.00
2022-09-28T17:36:49.406Z,4.00
2022-09-28T17:39:19.513Z,3.70
2022-09-28T17:41:47.801Z,5.95
2022-09-28T17:44:16.381Z,8.65
2022-09-28T17:46:48.640Z,2.95
2022-09-28T17:49:17.413Z,7.05
2022-09-28T17:51:45.719Z,3.78
2022-09-28T17:54:16.751Z,2.92
2022-09-28T17:56:46.142Z,4.82
2022-09-28T17:59:17.834Z,6.45
2022-09-28T18:01:46.154Z,3.20
2022-09-28T18:04:40.129Z,12.27
2022-09-28T18:07:06.926Z,11.98
2022-09-28T18:09:35.072Z,7.53
2022-09-28T18:12:05.626Z,8.82
2022-09-28T18:14:35.681Z,11.70
2022-09-28T18:17:04.395Z,6.15
2022-09-28T18:19:32.702Z,5.78
2022-09-28T18:22:01.502Z,11.88
2022-09-28T18:24:29.909Z,8.93
2022-09-28T18:26:58.204Z,7.65
2022-09-28T18:29:29.893Z,9.43
2022-09-28T18:32:00.706Z,5.70
2022-09-28T18:34:28.873Z,6.57
2022-09-28T18:37:02.201Z,7.65
2022-09-28T18:39:31.666Z,6.88
2022-09-28T18:41:59.863Z,9.98
2022-09-28T18:44:28.109Z,7.60
2022-09-28T18:46:56.339Z,8.73
2022-09-28T18:49:26.042Z,6.63
2022-09-28T18:51:54.365Z,7.93
2022-09-28T18:54:23.245Z,8.07
2022-09-28T18:56:56.286Z,3.15
2022-09-28T18:59:25.164Z,7.75
2022-09-28T19:01:53.464Z,5.68
2022-09-28T19:04:21.876Z,5.22
2022-09-28T19:06:52.318Z,4.05
2022-09-28T19:09:22.460Z,3.85
2022-09-28T19:11:53.635Z,8.15
2022-09-28T19:14:22.044Z,5.22
2022-09-28T19:16:50.291Z,4.07
2022-09-28T19:19:20.101Z,4.15
2022-09-28T19:21:51.205Z,4.97
2022-09-28T19:24:19.926Z,3.88
2022-09-28T19:26:48.689Z,5.60
2022-09-28T19:29:17.927Z,4.28
2022-09-28T19:31:46.580Z,7.60
2022-09-28T19:34:15.027Z,2.88
2022-09-28T19:36:43.456Z,5.93
2022-09-28T19:39:14.664Z,6.93
2022-09-28T19:41:49.450Z,4.55
2022-09-28T19:44:26.137Z,6.15
2022-09-28T19:47:07.416Z,3.72
2022-09-28T19:49:37.881Z,2.95
2022-09-28T19:52:13.942Z,5.32
2022-09-28T19:54:57.414Z,9.38
2022-09-28T19:57:28.041Z,6.32
2022-09-28T20:00:01.723Z,5.35
2022-09-28T20:02:34.818Z,7.00
2022-09-28T20:05:03.485Z,8.70
2022-09-28T20:07:33.404Z,5.70
2022-09-28T20:10:01.550Z,4.82
2022-09-28T20:12:32.982Z,4.93
2022-09-28T20:15:01.212Z,3.92
2022-09-28T20:17:29.410Z,4.38
2022-09-28T20:19:57.690Z,5.35
2022-09-28T20:22:25.850Z,4.22
2022-09-28T20:24:53.959Z,3.08
2022-09-28T20:27:26.228Z,5.32
2022-09-28T20:29:54.711Z,7.53
2022-09-28T20:32:22.814Z,5.75
2022-09-28T20:34:50.968Z,15.80
2022-09-28T20:37:19.359Z,7.03
2022-09-28T20:39:47.687Z,3.15
2022-09-28T20:42:19.172Z,6.15
2022-09-28T20:44:47.419Z,3.88
2022-09-28T20:47:15.557Z,3.85
2022-09-28T20:49:44.537Z,6.20
2022-09-28T20:52:12.724Z,6.68
2022-09-28T20:54:40.852Z,9.30
2022-09-28T20:57:17.881Z,7.15
2022-09-28T20:59:50.999Z,7.15
2022-09-28T21:02:22.917Z,6.07
2022-09-28T21:04:51.265Z,5.55
2022-09-28T21:07:19.607Z,5.10
2022-09-28T21:09:49.677Z,6.25
2022-09-28T21:12:21.206Z,7.68
2022-09-28T21:14:50.217Z,7.03
2022-09-28T21:17:18.674Z,5.30
2022-09-28T21:19:46.835Z,7.13
2022-09-28T21:22:14.946Z,7.82
2022-09-28T21:24:43.175Z,10.23
2022-09-28T21:27:11.329Z,4.88
2022-09-28T21:29:39.556Z,5.38
2022-09-28T21:32:08.501Z,8.90
2022-09-28T21:34:36.638Z,3.22
2022-09-28T21:37:05.460Z,6.07
2022-09-28T21:39:33.805Z,7.47
2022-09-28T21:42:02.028Z,4.55
2022-09-28T21:44:30.242Z,6.82
2022-09-28T21:46:58.459Z,6.90
2022-09-28T21:49:26.602Z,7.15
2022-09-28T21:51:54.787Z,6.57
2022-09-28T21:54:22.909Z,8.38
2022-09-28T21:56:51.036Z,4.47
2022-09-28T21:59:19.269Z,6.47
2022-09-28T22:01:48.199Z,7.85
2022-09-28T22:04:16.592Z,6.45
2022-09-28T22:06:44.850Z,8.98
2022-09-28T22:09:13.010Z,6.15
2022-09-28T22:11:42.139Z,9.07
2022-09-28T22:14:11.436Z,4.22
2022-09-28T22:16:39.792Z,4.68
2022-09-28T22:19:07.976Z,5.43
2022-09-28T22:21:36.375Z,3.83
2022-09-28T22:24:06.702Z,3.97
2022-09-28T22:26:36.904Z,7.85
2022-09-28T22:29:08.037Z,4.03
2022-09-28T22:31:39.138Z,5.22
2022-09-28T22:34:09.214Z,4.50
2022-09-28T22:36:37.529Z,10.02
2022-09-28T22:39:07.592Z,11.45
2022-09-28T22:41:36.853Z,5.85
2022-09-28T22:44:05.157Z,4.53
2022-09-28T22:46:33.282Z,4.72
2022-09-28T22:49:01.879Z,11.48
2022-09-28T22:51:31.579Z,7.10
2022-09-28T22:53:59.916Z,6.55
2022-09-28T22:56:28.639Z,9.35
2022-09-28T22:58:57.318Z,10.48
2022-09-28T23:01:30.097Z,7.50
2022-09-28T23:03:59.596Z,10.13
2022-09-28T23:06:32.092Z,7.10
2022-09-28T23:09:03.916Z,7.70
2022-09-28T23:11:32.437Z,5.18
2022-09-28T23:14:00.685Z,5.72
2022-09-28T23:16:30.144Z,4.07
2022-09-28T23:19:01.490Z,4.65
2022-09-28T23:21:29.709Z,5.35
2022-09-28T23:24:02.998Z,3.97
2022-09-28T23:26:34.237Z,4.20
2022-09-28T23:29:02.851Z,6.65
2022-09-28T23:31:33.117Z,6.78
2022-09-28T23:34:06.060Z,3.35
2022-09-28T23:36:34.782Z,5.53
2022-09-28T23:39:03.666Z,7.07
2022-09-28T23:41:31.815Z,9.23
2022-09-28T23:44:00.298Z,7.95
2022-09-28T23:46:28.565Z,4.03
2022-09-28T23:48:56.818Z,3.30
2022-09-28T23:51:25.088Z,8.50
2022-09-28T23:53:53.499Z,8.55
2022-09-28T23:56:21.655Z,6.93
2022-09-28T23:58:49.815Z,5.78
